Historique des stations

Retrouvez les conditions météo en temps réel en cliquant ici...

Station météo de Lucay-le-Mâle

Altitude de la station : 128 m







Données météorologiques pour le 20/10/2020
Date
Heure
Températures Humidité Point de rosée Vitesse
du vent
Direction Rafales Windchill Pression Pluviométrie
Cumul
Date
Heure
Températures Humidité Point de rosée Vitesse
du vent
Direction Rafales Windchill Pression Pluviométrie
Cumul
20/10/2020 18:3015.1 °C88 %13.1 °C6 km/hn/a14 km/h15.01008 hPa2.2 mm
20/10/2020 18:1015.3 °C87 %13.2 °C6 km/hn/a11 km/h15.51008 hPa2.2 mm
20/10/2020 18:0015.6 °C86 %13.3 °C10 km/hn/a24 km/h15.51008 hPa2.2 mm
20/10/2020 17:3015.4 °C87 %13.2 °C6 km/hn/a16 km/h15.51008 hPa2.2 mm
20/10/2020 17:3015.4 °C87 %13.2 °C6 km/hn/a16 km/h15.51008 hPa2.2 mm
20/10/2020 17:0015.0 °C88 %13.0 °C6 km/hn/a14 km/h15.01008 hPa2.2 mm
20/10/2020 17:0015.0 °C88 %13.0 °C6 km/hn/a14 km/h15.01008 hPa2.2 mm
20/10/2020 16:4015.0 °C88 %13.0 °C8 km/hn/a16 km/h14.51008 hPa2.2 mm
20/10/2020 16:3014.9 °C88 %12.9 °C8 km/hn/a16 km/h14.51009 hPa2.2 mm
20/10/2020 16:0014.9 °C87 %12.7 °C6 km/hn/a14 km/h15.01009 hPa2.2 mm
20/10/2020 16:0014.9 °C87 %12.7 °C6 km/hn/a14 km/h15.01009 hPa2.2 mm
20/10/2020 15:4014.8 °C88 %12.8 °C3 km/hn/a8 km/h15.01009 hPa2.2 mm
20/10/2020 15:3014.7 °C90 %13.0 °C3 km/hn/a6 km/h14.51009 hPa2.0 mm
20/10/2020 15:1014.6 °C89 %12.8 °C3 km/hn/a8 km/h14.51009 hPa2.0 mm
20/10/2020 15:0014.5 °C89 %12.7 °C5 km/hn/a16 km/h14.51009 hPa2.0 mm
20/10/2020 14:4014.4 °C89 %12.6 °C6 km/hn/a16 km/h14.51010 hPa1.8 mm
20/10/2020 14:3014.4 °C88 %12.4 °C5 km/hn/a13 km/h14.51010 hPa1.6 mm
20/10/2020 14:1014.3 °C88 %12.4 °C5 km/hn/a18 km/h14.51010 hPa1.4 mm
20/10/2020 13:4014.3 °C88 %12.4 °C3 km/hn/a8 km/h14.51010 hPa1.0 mm
20/10/2020 13:3014.2 °C88 %12.3 °C8 km/hn/a16 km/h14.01010 hPa1.0 mm
20/10/2020 13:1014.1 °C89 %12.3 °C5 km/hn/a13 km/h14.01010 hPa1.0 mm
20/10/2020 13:1014.1 °C89 %12.3 °C5 km/hn/a13 km/h14.01010 hPa1.0 mm
20/10/2020 13:0014.3 °C88 %12.3 °C3 km/hn/a13 km/h14.51011 hPa0.6 mm
20/10/2020 12:3014.4 °C86 %12.1 °C6 km/hn/a13 km/h14.51011 hPa0.4 mm
20/10/2020 12:1014.4 °C86 %12.1 °C8 km/hn/a16 km/h14.01011 hPa0.2 mm
20/10/2020 12:1014.4 °C86 %12.1 °C8 km/hn/a16 km/h14.01011 hPa0.2 mm
20/10/2020 12:0014.7 °C84 %12.0 °C10 km/hn/a21 km/h14.51011 hPa0.2 mm
20/10/2020 11:4014.9 °C83 %12.1 °C11 km/hn/a21 km/h14.51010 hPa0.0 mm
20/10/2020 11:3015.1 °C81 %11.9 °C13 km/hn/a19 km/h14.51010 hPa0.0 mm
20/10/2020 11:0015.2 °C80 %11.8 °C13 km/hn/a22 km/h14.51010 hPa0.0 mm
20/10/2020 10:4015.1 °C79 %11.5 °C13 km/hn/a19 km/h14.51010 hPa0.0 mm
20/10/2020 10:4015.1 °C79 %11.5 °C13 km/hn/a19 km/h14.51010 hPa0.0 mm
20/10/2020 10:1014.9 °C79 %11.3 °C11 km/hn/a19 km/h14.51009 hPa0.0 mm
20/10/2020 10:0015.0 °C78 %11.2 °C13 km/hn/a19 km/h14.51009 hPa0.0 mm
20/10/2020 09:4014.8 °C78 %11.0 °C13 km/hn/a21 km/h14.01009 hPa0.0 mm
20/10/2020 09:4014.8 °C78 %11.0 °C13 km/hn/a21 km/h14.01009 hPa0.0 mm
20/10/2020 09:1014.3 °C77 %10.4 °C11 km/hn/a22 km/h13.51009 hPa0.0 mm
20/10/2020 09:1014.3 °C77 %10.4 °C11 km/hn/a22 km/h13.51009 hPa0.0 mm
20/10/2020 08:4013.7 °C78 %10.0 °C5 km/hn/a11 km/h13.51009 hPa0.0 mm
20/10/2020 08:4013.7 °C78 %10.0 °C5 km/hn/a11 km/h13.51009 hPa0.0 mm
20/10/2020 08:1013.4 °C79 %9.9 °C3 km/hn/a8 km/h13.51009 hPa0.0 mm
20/10/2020 08:1013.4 °C79 %9.9 °C3 km/hn/a8 km/h13.51009 hPa0.0 mm
20/10/2020 07:4012.9 °C80 %9.6 °C5 km/hn/a10 km/h13.01009 hPa0.0 mm
20/10/2020 07:3012.9 °C80 %9.5 °C3 km/hn/a11 km/h13.01009 hPa0.0 mm
20/10/2020 07:1013.1 °C79 %9.6 °C3 km/hn/a8 km/h13.01009 hPa0.0 mm
20/10/2020 07:1013.1 °C79 %9.6 °C3 km/hn/a8 km/h13.01009 hPa0.0 mm
20/10/2020 06:4013.1 °C79 %9.6 °C5 km/hn/a8 km/h13.01009 hPa0.0 mm
20/10/2020 06:3013.2 °C78 %9.5 °C5 km/hn/a10 km/h13.01009 hPa0.0 mm
20/10/2020 06:1013.1 °C79 %9.6 °C2 km/hn/a6 km/h13.01009 hPa0.0 mm
20/10/2020 06:0013.7 °C76 %9.6 °C8 km/hn/a16 km/h13.51009 hPa0.0 mm
20/10/2020 05:4013.4 °C77 %9.5 °C11 km/hn/a16 km/h12.51009 hPa0.0 mm
20/10/2020 05:4013.4 °C77 %9.5 °C11 km/hn/a16 km/h12.51009 hPa0.0 mm
20/10/2020 05:1013.2 °C78 %9.4 °C13 km/hn/a18 km/h12.01009 hPa0.0 mm
20/10/2020 05:00-------0 hPa0.0 mm
20/10/2020 04:1011.0 °C85 %8.6 °C5 km/hn/a10 km/h11.01010 hPa0.0 mm
20/10/2020 04:1011.0 °C85 %8.6 °C5 km/hn/a10 km/h11.01010 hPa0.0 mm
20/10/2020 04:1011.0 °C85 %8.6 °C5 km/hn/a10 km/h11.01010 hPa0.0 mm
20/10/2020 04:1011.0 °C85 %8.6 °C5 km/hn/a10 km/h11.01010 hPa0.0 mm
20/10/2020 04:0010.2 °C86 %8.0 °C3 km/hn/a5 km/h10.01010 hPa0.0 mm
20/10/2020 03:309.1 °C88 %7.2 °C---9.01010 hPa0.0 mm
20/10/2020 03:108.8 °C89 %7.1 °C-n/a2 km/h9.01010 hPa0.0 mm
20/10/2020 03:008.8 °C88 %6.9 °C---9.01010 hPa0.0 mm
20/10/2020 03:008.8 °C88 %6.9 °C---9.01010 hPa0.0 mm
20/10/2020 02:408.8 °C88 %6.9 °C-n/a2 km/h9.01010 hPa0.0 mm
20/10/2020 02:309.1 °C87 %7.0 °C-n/a2 km/h9.01010 hPa0.0 mm
20/10/2020 02:10-------0 hPan/a mm
20/10/2020 02:00-------0 hPan/a mm
20/10/2020 02:009.7 °C84 %7.1 °C2 km/hn/a5 km/h9.51010 hPan/a mm
20/10/2020 01:1010.6 °C82 %7.7 °C3 km/hn/a10 km/h10.51010 hPa0.0 mm
20/10/2020 01:1010.6 °C82 %7.7 °C3 km/hn/a10 km/h10.51010 hPa0.0 mm
20/10/2020 01:0010.8 °C81 %7.7 °C2 km/hn/a5 km/h11.01010 hPa0.0 mm
20/10/2020 00:4010.9 °C81 %7.8 °C3 km/hn/a10 km/h11.01010 hPa0.0 mm
20/10/2020 00:3010.7 °C82 %7.8 °C5 km/hn/a11 km/h10.51010 hPa0.0 mm
20/10/2020 00:1010.6 °C82 %7.6 °C5 km/hn/a11 km/h10.51010 hPa0.0 mm
20/10/2020 00:0010.8 °C82 %7.8 °C3 km/hn/a10 km/h11.01010 hPa0.0 mm


Minima :

Température : 8.8 °C
Humidité : 76 %
Point de rosée : 6.9 °C
Vent moyen : 2 km/h
Windchill : 9.0
Pression atm. : 0 hPa
Maxima :

Température : 15.6 °C
Humidité : 90 %
Point de rosée : 13.3 °C
Vent moyen : 13 km/h
Windchill : 15.5
Pression atm. : 1011 hPa
Rafales max : 24 km/h
Cumul de pluie sur 24H : 2.2 mm

Lucay-le-Mâle est une commune du département Indre (36).
La station météorologique du réseau de l'association la plus proche de Lucay-le-Mâle est celle de Villegouin



Icône Facebook Association Météo Centre Icône Twitter Association Météo Centre Icône Chaîne Youtube Association Météo Centre Icône contact Association Météo Centre Icône Insta Association Météo Centre